Argonia, Kansas
Current Conditions -  °F | °C
As of 3:53 AM on Thursday 27 Nov 2014 (Local Time) from KICT Reporting Station
Few Clouds Few Clouds  
Wind Chill: 16°   Ceiling: Unl
Heat Index: 22°   Visibility: 10mi
Dew Point: 16°   Wind: 5mph
Humidity: 78%   Direction: 260°W
Pressure: 30.49"   Gusts: NA
Location:  37.27°N, 97.77°W
Report Text: KICT 270953Z 26004KT 10SM FEW100 M06/M09 A3049 RMK AO2 SLP337 T10561089
Loading
Personal Weather Stations






























Interactive Weather Map New forecast layout! Learn more

10-Day Weather Forecast

Advertisements
Track Severe Weather on mobile